• Join FlightAware (Why Join?)
  • Login
  • US Flag 
08:55PM EST


 

Airport Tracker/Info


-or-


 

Live Flight TrackerFlight Track Log ✈ SWA864 ✈ 13-Jul-2013 ✈ KOAK - KGEG

Flight Track Log - Related Links

Times and Time Zones

All times are in EDT time to prevent confusion due to time zone crossing. See the SWA864 flight status page for this flight to view local times or setup timezone preferences in your user account.

Time Position Orientation Groundspeed Altitude Reporting Facility
EDT Latitude Longitude Course Direction KTS MPH feet Rate Location/Type
10:18PM 37.7275 -122.2542 North 169 194 1,400  Level Oakland Center
10:19PM 37.7706 -122.3064 316° Northwest 215 247 3,700 2,520 Climbing Oakland Center
10:20PM 37.8469 -122.3044 North 274 315 6,600 3,000 Climbing Oakland Center
10:21PM 37.9272 -122.2864 10° North 298 343 9,800 2,580 Climbing Oakland Center
10:22PM 38.0125 -122.2497 19° North 331 381 11,900 2,340 Climbing Oakland Center
10:23PM 38.1036 -122.2122 18° North 345 397 14,600 2,640 Climbing Oakland Center
10:24PM 38.2936 -122.2167 North  Level FlightAware Approximate
10:24PM 38.2211 -122.1636 18° North 368 423 17,300  Level Oakland Center
10:25PM 38.3228 -122.1200 19° North 381 438 19,700 2,160 Climbing Oakland Center
10:26PM 38.4269 -122.0767 18° North 392 451 21,700 1,860 Climbing Oakland Center
10:28PM 38.5353 -122.0328 18° North 406 467 23,600 1,620 Climbing Oakland Center
10:29PM 38.6456 -121.9867 18° North 417 480 25,000 1,620 Climbing Oakland Center
10:30PM 38.7628 -121.9378 18° North 427 491 26,900 1,740 Climbing Oakland Center
10:31PM 38.8758 -121.8911 18° North 425 489 28,600 1,320 Climbing Oakland Center
10:32PM 38.9911 -121.8408 19° North 434 499 29,700 1,080 Climbing Oakland Center
10:33PM 39.1114 -121.7897 18° North 449 517 30,800 1,020 Climbing Oakland Center
10:34PM 39.2361 -121.7364 18° North 464 534 31,800 1,020 Climbing Oakland Center
10:35PM 39.3617 -121.6825 18° North 475 547 33,000 1,200 Climbing Oakland Center
10:36PM 39.4908 -121.6261 19° North 475 547 34,300 1,080 Climbing Oakland Center
10:37PM 39.6147 -121.5733 18° North 473 544 35,300 840 Climbing Oakland Center
10:38PM 39.7394 -121.5186 19° North 475 547 36,000 300 Climbing Oakland Center
10:39PM 39.8650 -121.4636 19° North 478 550 36,000  Level Oakland Center
10:40PM 40.0167 -121.3983 18° North 482 555 36,000  Level Oakland Center
10:41PM 40.1433 -121.3414 19° North 483 556 36,000  Level Oakland Center
10:42PM 40.2708 -121.2850 19° North 486 559 36,000  Level Oakland Center
10:43PM 40.3981 -121.2294 18° North 486 559 36,000  Level Oakland Center
10:44PM 40.5231 -121.1733 19° North 480 552 36,000  Level Oakland Center
10:45PM 40.6547 -121.1194 17° North 486 559 36,000  Level Oakland Center
10:45PM 40.7314 -121.0831 20° North 481 554 36,000  Level Seattle Center
10:46PM 40.8564 -121.0272 19° North 479 551 36,000  Level Seattle Center
10:47PM 40.9808 -120.9714 19° North 474 545 36,000  Level Seattle Center
10:48PM 41.1061 -120.9153 19° North 477 549 36,000  Level Seattle Center
10:49PM 41.2314 -120.8572 19° North 481 554 36,000  Level Seattle Center
10:50PM 41.3558 -120.8014 19° North 475 547 36,000  Level Seattle Center
10:51PM 41.4800 -120.7436 19° North 476 548 36,000  Level Seattle Center
10:53PM 41.6042 -120.6869 19° North 475 547 36,000  Level Seattle Center
10:54PM 41.7522 -120.6192 19° North 470 541 36,000  Level Seattle Center
10:55PM 41.8769 -120.5600 19° North 475 547 36,000  Level Seattle Center
10:56PM 42.0011 -120.5042 18° North 475 547 36,000  Level Seattle Center
10:57PM 42.1253 -120.4436 20° North 475 547 36,000  Level Seattle Center
10:58PM 42.2519 -120.3864 18° North 480 552 36,000  Level Seattle Center
10:59PM 42.3797 -120.3267 19° North 486 559 36,000  Level Seattle Center
11:00PM 42.5056 -120.2658 20° North 482 555 36,000  Level Seattle Center
11:01PM 42.6311 -120.2056 19° North 481 554 36,000  Level Seattle Center
11:02PM 42.7594 -120.1444 19° North 488 562 36,000  Level Seattle Center
11:03PM 42.8861 -120.0836 19° North 485 558 36,000  Level Seattle Center
11:04PM 43.0133 -120.0214 20° North 488 562 36,000  Level Seattle Center
11:05PM 43.1422 -119.9606 19° North 491 565 36,000  Level Seattle Center
11:06PM 43.2697 -119.8983 20° North 489 563 36,000  Level Seattle Center
11:07PM 43.4069 -119.8317 19° North 488 562 36,000  Level Seattle Center
11:08PM 43.5339 -119.7678 20° North 487 560 36,000  Level Seattle Center
11:09PM 43.6614 -119.7058 19° North 488 562 36,000  Level Seattle Center
11:10PM 43.7897 -119.6397 20° North 494 568 36,000  Level Seattle Center
11:11PM 43.9183 -119.5756 20° North 494 568 36,000  Level Seattle Center
11:12PM 44.0464 -119.5131 19° North 490 564 36,000  Level Seattle Center
11:13PM 44.1747 -119.4475 20° North 493 567 36,000  Level Seattle Center
11:14PM 44.3300 -119.3694 20° North 497 572 36,000  Level Seattle Center
11:15PM 44.4592 -119.3044 20° North 497 572 36,000  Level Seattle Center
11:16PM 44.5878 -119.2397 20° North 496 571 36,000  Level Seattle Center
11:17PM 44.7153 -119.1731 20° North 494 568 36,000  Level Seattle Center
11:18PM 44.8442 -119.1081 20° North 495 570 36,000  Level Seattle Center
11:19PM 44.9736 -119.0411 20° North 498 573 36,000  Level Seattle Center
11:20PM 45.1022 -118.9742 20° North 497 572 36,000  Level Seattle Center
11:21PM 45.2328 -118.9078 20° North 499 574 36,000  Level Seattle Center
11:22PM 45.3606 -118.8394 21° North 494 568 36,000  Level Seattle Center
11:23PM 45.4900 -118.7711 20° North 497 572 36,000  Level Seattle Center
11:24PM 45.6189 -118.7028 20° North 495 570 36,000  Level Seattle Center
11:25PM 45.7483 -118.6336 20° North 496 571 36,000  Level Seattle Center
11:26PM 45.8744 -118.5650 21° North 486 559 36,000 -60 Level Seattle Center
11:27PM 46.0050 -118.4956 20° North 485 558 35,900 -840 Descending Seattle Center
11:28PM 46.1300 -118.4283 20° North 481 554 34,400 -2,100 Descending Seattle Center
11:29PM 46.2556 -118.3592 21° North 483 556 31,700 -2,640 Descending Seattle Center
11:30PM 46.3803 -118.2900 21° North 481 554 29,100 -2,700 Descending Seattle Center
11:31PM 46.5264 -118.2122 20° North 465 535 26,300 -2,400 Descending Seattle Center
11:32PM 46.6403 -118.1456 22° Northeast 444 511 24,300 -2,100 Descending Seattle Center
11:33PM 46.7497 -118.0858 20° North 423 487 22,100 -2,340 Descending Seattle Center
11:34PM 46.8553 -118.0281 21° North 409 471 19,700 -2,340 Descending Seattle Center
11:35PM 46.9608 -117.9703 20° North 404 465 17,500 -2,340 Descending Seattle Center
11:36PM 47.0619 -117.9128 21° North 393 452 15,000 -2,460 Descending Seattle Center
11:37PM 47.1581 -117.8522 23° Northeast 378 435 12,600 -2,340 Descending Seattle Center
11:38PM 47.2433 -117.7694 33° Northeast 365 420 10,400 -1,440 Descending Seattle Center
11:39PM 47.3208 -117.6947 33° Northeast 320 368 9,800 -1,140 Descending Seattle Center
11:40PM 47.3928 -117.6267 33° Northeast 308 354 8,200 -1,440 Descending Seattle Center
11:41PM 47.4594 -117.5619 33° Northeast 289 333 6,900 -1,260 Descending Seattle Center
11:42PM 47.5225 -117.5014 33° Northeast 273 314 5,700 -960 Descending Seattle Center
11:43PM 47.5817 -117.4450 33° Northeast 252 290 5,000 -780 Descending Seattle Center
11:44PM 47.6306 -117.4222 17° North 189 217 4,200 -840 Descending Seattle Center
11:45PM 47.6589 -117.4650 315° West 148 170 3,400 -840 Descending Seattle Center
11:46PM 47.6347 -117.5136 234° Southwest 152 175 2,500 -540 Descending Seattle Center
11:47PM 47.6186 -117.5383 226° Southwest 99 114 2,400 -120 Descending Seattle Center